createdAt,value
2022-09-15T00:00:20.323Z,58.93
2022-09-15T00:01:22.706Z,58.78
2022-09-15T00:02:24.630Z,58.82
2022-09-15T00:03:26.762Z,58.81
2022-09-15T00:04:28.583Z,59.04
2022-09-15T00:05:30.325Z,59.17
2022-09-15T00:06:33.263Z,58.70
2022-09-15T00:07:35.183Z,58.85
2022-09-15T00:08:37.962Z,59.17
2022-09-15T00:09:39.663Z,58.90
2022-09-15T00:11:15.278Z,58.57
2022-09-15T00:12:17.742Z,58.80
2022-09-15T00:13:21.144Z,58.73
2022-09-15T00:14:23.222Z,58.67
2022-09-15T00:15:24.993Z,58.80
2022-09-15T00:16:30.738Z,59.09
2022-09-15T00:17:32.524Z,58.87
2022-09-15T00:18:36.526Z,59.08
2022-09-15T00:19:38.303Z,58.72
2022-09-15T00:20:45.431Z,58.93
2022-09-15T00:21:47.344Z,58.95
2022-09-15T00:22:49.408Z,58.89
2022-09-15T00:23:52.473Z,58.99
2022-09-15T00:24:54.299Z,58.98
2022-09-15T00:25:56.094Z,58.92
2022-09-15T00:26:57.855Z,58.92
2022-09-15T00:27:59.588Z,58.67
2022-09-15T00:29:02.340Z,58.82
2022-09-15T00:30:06.162Z,58.81
2022-09-15T00:31:13.484Z,58.76
2022-09-15T00:32:15.363Z,58.86
2022-09-15T00:33:19.577Z,58.84
2022-09-15T00:34:21.297Z,58.79
2022-09-15T00:35:23.012Z,58.49
2022-09-15T00:36:26.867Z,58.85
2022-09-15T00:37:28.607Z,58.82
2022-09-15T00:38:31.474Z,58.55
2022-09-15T00:39:33.268Z,58.85
2022-09-15T00:40:50.680Z,58.88
2022-09-15T00:41:52.557Z,58.77
2022-09-15T00:42:54.418Z,58.79
2022-09-15T00:44:00.502Z,58.50
2022-09-15T00:45:04.519Z,58.51
2022-09-15T00:46:06.346Z,58.69
2022-09-15T00:47:22.064Z,58.85
2022-09-15T00:48:23.791Z,58.62
2022-09-15T00:49:32.152Z,58.74
2022-09-15T00:50:36.133Z,58.65
2022-09-15T00:52:07.712Z,58.53
2022-09-15T00:53:12.612Z,58.51
2022-09-15T00:54:42.488Z,58.39
2022-09-15T00:55:48.655Z,58.21
2022-09-15T00:56:54.929Z,58.24
2022-09-15T00:58:27.468Z,58.01
2022-09-15T00:59:33.797Z,58.08
2022-09-15T01:00:36.690Z,58.13
2022-09-15T01:01:43.109Z,58.16
2022-09-15T01:02:48.188Z,58.19
2022-09-15T01:03:49.947Z,58.12
2022-09-15T01:04:58.146Z,58.32
2022-09-15T01:06:11.697Z,58.36
2022-09-15T01:07:19.998Z,58.21
2022-09-15T01:08:41.726Z,58.24
2022-09-15T01:09:59.184Z,58.01
2022-09-15T01:11:02.711Z,58.20
2022-09-15T01:12:05.110Z,57.88
2022-09-15T01:13:13.931Z,58.16
2022-09-15T01:14:15.675Z,57.99
2022-09-15T01:15:17.573Z,58.12
2022-09-15T01:17:03.919Z,57.81
2022-09-15T01:18:45.256Z,57.70
2022-09-15T01:20:38.204Z,57.97
2022-09-15T01:22:14.817Z,57.71
2022-09-15T01:23:47.315Z,57.60
2022-09-15T01:25:03.556Z,57.65
2022-09-15T01:26:43.885Z,57.52
2022-09-15T01:28:43.883Z,57.19
2022-09-15T01:30:03.772Z,57.37
2022-09-15T01:31:20.686Z,57.51
2022-09-15T01:33:12.997Z,57.12
2022-09-15T01:34:20.396Z,57.15
2022-09-15T01:35:22.094Z,57.46
2022-09-15T01:36:40.875Z,57.09
2022-09-15T01:37:54.892Z,57.02
2022-09-15T01:39:09.038Z,57.34
2022-09-15T01:40:15.819Z,57.03
2022-09-15T01:41:33.224Z,57.21
2022-09-15T01:42:37.588Z,57.01
2022-09-15T01:44:08.612Z,57.13
2022-09-15T01:45:28.038Z,57.06
2022-09-15T01:46:37.205Z,57.27
2022-09-15T01:47:41.578Z,57.31
2022-09-15T01:48:45.598Z,57.10
2022-09-15T01:49:54.636Z,57.21
2022-09-15T01:51:01.912Z,57.34
2022-09-15T01:52:05.490Z,57.32
2022-09-15T01:53:15.417Z,57.00
2022-09-15T01:54:35.826Z,57.02
2022-09-15T01:55:48.916Z,56.81
2022-09-15T01:56:50.668Z,56.97
2022-09-15T01:57:52.554Z,57.10
2022-09-15T01:58:54.395Z,56.96
2022-09-15T01:59:56.666Z,56.90
2022-09-15T02:01:16.967Z,56.95
2022-09-15T02:02:35.600Z,56.87
2022-09-15T02:03:56.177Z,56.79
2022-09-15T02:05:05.973Z,56.90
2022-09-15T02:06:21.427Z,56.78
2022-09-15T02:07:48.880Z,56.83
2022-09-15T02:09:02.826Z,56.53
2022-09-15T02:10:27.289Z,56.78
2022-09-15T02:11:30.282Z,56.53
2022-09-15T02:13:00.512Z,57.03
2022-09-15T02:14:26.048Z,56.64
2022-09-15T02:15:42.236Z,56.57
2022-09-15T02:16:54.179Z,56.66
2022-09-15T02:17:59.087Z,56.88
2022-09-15T02:19:31.614Z,56.68
2022-09-15T02:20:49.296Z,56.84
2022-09-15T02:22:23.918Z,56.73
2022-09-15T02:23:32.772Z,56.74
2022-09-15T02:24:45.869Z,56.89
2022-09-15T02:25:53.879Z,56.62
2022-09-15T02:26:56.544Z,56.83
2022-09-15T02:28:06.660Z,56.81
2022-09-15T02:29:13.873Z,57.02
2022-09-15T02:30:19.610Z,56.67
2022-09-15T02:31:25.427Z,56.62
2022-09-15T02:32:31.469Z,56.66
2022-09-15T02:33:47.800Z,56.65
2022-09-15T02:34:54.456Z,56.46
2022-09-15T02:35:58.988Z,56.57
2022-09-15T02:37:02.149Z,56.90
2022-09-15T02:38:09.007Z,56.36
2022-09-15T02:39:23.384Z,56.71
2022-09-15T02:40:25.507Z,56.63
2022-09-15T02:41:27.920Z,56.42
2022-09-15T02:42:32.086Z,56.59
2022-09-15T02:43:34.081Z,56.47
2022-09-15T02:44:36.354Z,56.57
2022-09-15T02:45:38.556Z,56.53
2022-09-15T02:46:40.347Z,56.38
2022-09-15T02:47:42.060Z,56.36
2022-09-15T02:48:43.774Z,56.33
2022-09-15T02:49:45.781Z,56.68
2022-09-15T02:50:47.513Z,56.58
2022-09-15T02:51:49.650Z,56.29
2022-09-15T02:52:51.355Z,56.23
2022-09-15T02:53:53.673Z,56.38
2022-09-15T02:54:55.411Z,56.29
2022-09-15T02:55:57.916Z,56.37
2022-09-15T02:57:00.942Z,56.45
2022-09-15T02:58:02.718Z,56.39
2022-09-15T02:59:04.669Z,56.33
2022-09-15T03:00:13.686Z,56.27
2022-09-15T03:01:16.142Z,56.44
2022-09-15T03:02:20.440Z,56.53
2022-09-15T03:03:22.344Z,56.15
2022-09-15T03:04:24.070Z,56.27
2022-09-15T03:05:28.955Z,56.37
2022-09-15T03:06:34.496Z,56.55
2022-09-15T03:07:39.850Z,56.32
2022-09-15T03:08:52.958Z,56.50
2022-09-15T03:09:54.745Z,56.58
2022-09-15T03:10:57.635Z,56.52
2022-09-15T03:12:00.001Z,56.68
2022-09-15T03:13:01.736Z,56.26
2022-09-15T03:14:06.497Z,56.22
2022-09-15T03:15:12.019Z,56.40
2022-09-15T03:16:16.114Z,56.34
2022-09-15T03:17:18.888Z,56.24
2022-09-15T03:18:20.588Z,56.33
2022-09-15T03:19:22.308Z,56.44
2022-09-15T03:20:30.217Z,56.45
2022-09-15T03:21:32.033Z,56.72
2022-09-15T03:22:34.241Z,56.41
2022-09-15T03:23:36.469Z,56.74
2022-09-15T03:24:38.803Z,56.38
2022-09-15T03:25:40.573Z,56.68
2022-09-15T03:26:42.265Z,56.33
2022-09-15T03:27:44.031Z,56.50
2022-09-15T03:28:45.775Z,56.54
2022-09-15T03:29:48.135Z,56.79
2022-09-15T03:30:49.848Z,56.80
2022-09-15T03:31:52.003Z,56.81
2022-09-15T03:32:53.722Z,56.95
2022-09-15T03:33:56.086Z,56.78
2022-09-15T03:34:58.702Z,56.89
2022-09-15T03:36:01.344Z,56.83
2022-09-15T03:37:03.246Z,56.91
2022-09-15T03:38:04.975Z,56.73
2022-09-15T03:39:06.736Z,56.82
2022-09-15T03:40:10.612Z,56.83
2022-09-15T03:41:13.071Z,56.78
2022-09-15T03:42:15.253Z,56.50
2022-09-15T03:43:18.791Z,56.81
2022-09-15T03:44:20.591Z,56.80
2022-09-15T03:45:22.330Z,56.76
2022-09-15T03:46:24.097Z,57.02
2022-09-15T03:47:25.856Z,56.95
2022-09-15T03:48:31.020Z,56.91
2022-09-15T03:49:33.217Z,56.92
2022-09-15T03:50:35.098Z,56.79
2022-09-15T03:51:36.881Z,57.02
2022-09-15T03:52:38.645Z,56.79
2022-09-15T03:53:41.873Z,56.63
2022-09-15T03:54:43.784Z,56.81
2022-09-15T03:55:47.660Z,57.04
2022-09-15T03:56:51.780Z,56.59
2022-09-15T03:57:53.980Z,56.97
2022-09-15T03:58:55.774Z,56.76
2022-09-15T03:59:57.533Z,56.81
2022-09-15T04:00:59.338Z,56.96
2022-09-15T04:02:01.124Z,57.03
2022-09-15T04:03:03.540Z,57.16
2022-09-15T04:04:05.219Z,56.99
2022-09-15T04:05:07.628Z,56.70
2022-09-15T04:06:09.370Z,57.13
2022-09-15T04:07:11.133Z,56.81
2022-09-15T04:08:13.327Z,57.04
2022-09-15T04:09:15.144Z,56.77
2022-09-15T04:10:17.410Z,56.96
2022-09-15T04:11:22.079Z,57.02
2022-09-15T04:12:23.792Z,57.09
2022-09-15T04:13:28.715Z,57.26
2022-09-15T04:14:30.705Z,57.07
2022-09-15T04:15:32.420Z,56.88
2022-09-15T04:16:34.261Z,57.04
2022-09-15T04:17:36.305Z,57.18
2022-09-15T04:18:38.033Z,57.03
2022-09-15T04:19:40.254Z,57.41
2022-09-15T04:20:42.291Z,57.28
2022-09-15T04:21:45.424Z,57.41
2022-09-15T04:22:47.320Z,57.15
2022-09-15T04:23:50.127Z,57.37
2022-09-15T04:24:52.281Z,57.10
2022-09-15T04:26:00.303Z,57.06
2022-09-15T04:27:02.025Z,57.26
2022-09-15T04:28:03.702Z,57.37
2022-09-15T04:29:13.470Z,57.60
2022-09-15T04:30:15.242Z,57.51
2022-09-15T04:31:18.495Z,57.51
2022-09-15T04:32:21.071Z,57.43
2022-09-15T04:33:23.011Z,57.62
2022-09-15T04:34:25.349Z,57.75
2022-09-15T04:35:27.064Z,57.86
2022-09-15T04:36:29.669Z,57.71
2022-09-15T04:37:32.581Z,57.87
2022-09-15T04:38:35.773Z,57.82
2022-09-15T04:39:37.855Z,58.00
2022-09-15T04:40:39.558Z,58.14
2022-09-15T04:41:41.289Z,58.05
2022-09-15T04:42:43.036Z,58.10
2022-09-15T04:43:44.961Z,58.16
2022-09-15T04:44:46.704Z,58.09
2022-09-15T04:45:48.910Z,58.23
2022-09-15T04:46:50.713Z,58.50
2022-09-15T04:47:53.271Z,58.24
2022-09-15T04:48:56.478Z,58.33
2022-09-15T04:49:58.236Z,58.29
2022-09-15T04:51:07.683Z,58.30
2022-09-15T04:52:10.120Z,58.43
2022-09-15T04:53:11.920Z,58.52
2022-09-15T04:54:13.666Z,58.43
2022-09-15T04:55:15.449Z,58.69
2022-09-15T04:56:20.847Z,58.72
2022-09-15T04:57:22.574Z,58.58
2022-09-15T04:58:24.280Z,58.37
2022-09-15T04:59:26.080Z,58.62
2022-09-15T05:00:28.681Z,58.45
2022-09-15T05:01:34.975Z,58.50
2022-09-15T05:02:36.803Z,58.69
2022-09-15T05:03:39.505Z,58.72
2022-09-15T05:04:41.435Z,58.76
2022-09-15T05:05:43.145Z,58.66
2022-09-15T05:06:44.854Z,58.69
2022-09-15T05:07:49.718Z,58.40
2022-09-15T05:08:54.986Z,58.76
2022-09-15T05:09:56.701Z,58.64
2022-09-15T05:11:10.162Z,58.53
2022-09-15T05:12:11.939Z,58.70
2022-09-15T05:13:13.781Z,58.41
2022-09-15T05:14:15.596Z,58.59
2022-09-15T05:15:17.387Z,58.77
2022-09-15T05:16:24.757Z,58.42
2022-09-15T05:17:29.832Z,58.47
2022-09-15T05:18:33.025Z,58.64
2022-09-15T05:19:34.894Z,58.74
2022-09-15T05:20:36.614Z,58.65
2022-09-15T05:21:38.490Z,58.77
2022-09-15T05:22:42.000Z,58.70
2022-09-15T05:23:44.754Z,58.44
2022-09-15T05:24:46.506Z,58.67
2022-09-15T05:25:56.322Z,58.65
2022-09-15T05:26:58.011Z,58.75
2022-09-15T05:27:59.731Z,58.96
2022-09-15T05:29:01.479Z,58.79
2022-09-15T05:30:25.235Z,58.73
2022-09-15T05:31:30.894Z,58.66
2022-09-15T05:32:32.877Z,58.93
2022-09-15T05:33:35.970Z,59.03
2022-09-15T05:34:37.840Z,59.07
2022-09-15T05:35:39.623Z,59.08
2022-09-15T05:36:41.380Z,58.65
2022-09-15T05:37:43.135Z,58.88
2022-09-15T05:38:45.353Z,58.86
2022-09-15T05:39:47.319Z,59.19
2022-09-15T05:40:49.885Z,59.13
2022-09-15T05:41:51.887Z,59.29
2022-09-15T05:42:53.611Z,59.31
2022-09-15T05:43:57.713Z,59.39
2022-09-15T05:44:59.441Z,59.34
2022-09-15T05:46:02.829Z,59.21
2022-09-15T05:47:04.839Z,59.38
2022-09-15T05:48:06.536Z,59.26
2022-09-15T05:49:08.916Z,59.39
2022-09-15T05:50:11.203Z,59.23
2022-09-15T05:51:13.507Z,59.40
2022-09-15T05:52:15.277Z,59.67
2022-09-15T05:53:17.969Z,59.33
2022-09-15T05:54:19.849Z,59.58
2022-09-15T05:55:21.725Z,59.17
2022-09-15T05:56:24.254Z,59.35
2022-09-15T05:57:26.008Z,59.10
2022-09-15T05:58:27.772Z,59.25
2022-09-15T05:59:29.523Z,59.58
2022-09-15T06:00:31.240Z,59.50
2022-09-15T06:01:33.197Z,59.49
2022-09-15T06:02:35.129Z,59.54
2022-09-15T06:03:36.923Z,59.54
2022-09-15T06:04:39.049Z,59.49
2022-09-15T06:05:41.400Z,59.24
2022-09-15T06:06:43.112Z,59.14
2022-09-15T06:07:44.865Z,59.33
2022-09-15T06:08:54.232Z,59.32
2022-09-15T06:09:59.531Z,59.28
2022-09-15T06:11:07.862Z,59.42
2022-09-15T06:12:09.602Z,58.90
2022-09-15T06:13:11.309Z,59.35
2022-09-15T06:14:16.183Z,59.16
2022-09-15T06:15:17.918Z,59.38
2022-09-15T06:16:24.608Z,59.08
2022-09-15T06:17:27.161Z,59.00
2022-09-15T06:18:28.938Z,59.11
2022-09-15T06:19:30.662Z,58.97
2022-09-15T06:20:32.527Z,59.08
2022-09-15T06:21:34.480Z,58.93
2022-09-15T06:22:36.472Z,59.27
2022-09-15T06:23:39.829Z,59.04
2022-09-15T06:24:41.544Z,59.12
2022-09-15T06:25:43.280Z,59.47
2022-09-15T06:26:45.041Z,59.13
2022-09-15T06:27:50.057Z,59.10
2022-09-15T06:29:03.145Z,59.14
2022-09-15T06:30:05.899Z,59.24
2022-09-15T06:31:13.369Z,59.02
2022-09-15T06:32:15.146Z,59.45
2022-09-15T06:33:16.999Z,59.33
2022-09-15T06:34:18.708Z,59.23
2022-09-15T06:35:20.466Z,59.20
2022-09-15T06:36:26.626Z,59.28
2022-09-15T06:37:28.363Z,59.00
2022-09-15T06:38:31.185Z,59.15
2022-09-15T06:39:33.004Z,59.50
2022-09-15T06:40:34.760Z,59.29
2022-09-15T06:42:00.876Z,59.32
2022-09-15T06:42:58.337Z,59.57
2022-09-15T06:44:00.257Z,59.55
2022-09-15T06:45:02.308Z,59.42
2022-09-15T06:46:17.320Z,59.54
2022-09-15T06:47:19.656Z,59.73
2022-09-15T06:48:24.900Z,59.62
2022-09-15T06:49:27.066Z,59.43
2022-09-15T06:50:29.135Z,59.71
2022-09-15T06:51:35.501Z,59.51
2022-09-15T06:52:37.226Z,59.70
2022-09-15T06:53:40.186Z,59.55
2022-09-15T06:54:41.925Z,59.49
2022-09-15T06:55:43.641Z,59.55
2022-09-15T06:56:45.636Z,59.65
2022-09-15T06:57:47.390Z,59.47
2022-09-15T06:58:49.967Z,59.80
2022-09-15T06:59:51.693Z,59.46
2022-09-15T07:00:53.417Z,59.50
2022-09-15T07:01:55.951Z,59.67
2022-09-15T07:02:57.885Z,59.81
2022-09-15T07:04:01.540Z,59.91
2022-09-15T07:05:03.531Z,60.06
2022-09-15T07:06:07.510Z,60.11
2022-09-15T07:07:09.216Z,59.83
2022-09-15T07:08:10.986Z,59.78
2022-09-15T07:09:13.310Z,59.78
2022-09-15T07:10:15.103Z,59.82
2022-09-15T07:11:18.384Z,59.87
2022-09-15T07:12:20.113Z,59.80
2022-09-15T07:13:23.160Z,59.98
2022-09-15T07:14:24.908Z,59.91
2022-09-15T07:15:27.396Z,59.81
2022-09-15T07:16:29.839Z,59.78
2022-09-15T07:17:31.707Z,59.64
2022-09-15T07:18:34.517Z,59.87
2022-09-15T07:19:36.306Z,59.89
2022-09-15T07:20:40.645Z,59.68
2022-09-15T07:21:42.369Z,60.06
2022-09-15T07:22:44.275Z,60.09
2022-09-15T07:23:48.007Z,59.86
2022-09-15T07:24:49.729Z,59.97
2022-09-15T07:25:51.439Z,59.79
2022-09-15T07:26:53.364Z,59.86
2022-09-15T07:27:55.127Z,59.77
2022-09-15T07:29:04.689Z,59.76
2022-09-15T07:30:08.483Z,59.74
2022-09-15T07:31:14.685Z,59.97
2022-09-15T07:32:16.451Z,59.83
2022-09-15T07:33:18.172Z,59.64
2022-09-15T07:34:19.978Z,60.01
2022-09-15T07:35:21.750Z,60.05
2022-09-15T07:36:23.532Z,59.81
2022-09-15T07:37:25.229Z,59.89
2022-09-15T07:38:26.959Z,59.82
2022-09-15T07:39:28.982Z,60.02
2022-09-15T07:40:31.906Z,59.73
2022-09-15T07:41:34.733Z,59.83
2022-09-15T07:42:36.505Z,60.23
2022-09-15T07:43:38.833Z,60.13
2022-09-15T07:44:40.594Z,60.22
2022-09-15T07:45:42.679Z,59.84
2022-09-15T07:46:44.607Z,60.24
2022-09-15T07:47:46.386Z,60.06
2022-09-15T07:48:51.915Z,60.07
2022-09-15T07:49:53.868Z,60.33
2022-09-15T07:50:55.719Z,60.17
2022-09-15T07:51:57.560Z,60.10
2022-09-15T07:52:59.296Z,60.21
2022-09-15T07:54:01.095Z,60.29
2022-09-15T07:55:02.831Z,60.09
2022-09-15T07:56:04.868Z,60.36
2022-09-15T07:57:06.597Z,60.15
2022-09-15T07:58:08.486Z,60.40
2022-09-15T07:59:10.266Z,60.49
2022-09-15T08:00:14.768Z,60.52
2022-09-15T08:01:18.975Z,60.30
2022-09-15T08:02:21.507Z,60.62
2022-09-15T08:03:23.360Z,60.52
2022-09-15T08:04:25.187Z,60.63
2022-09-15T08:05:28.595Z,60.45
2022-09-15T08:06:30.371Z,60.47
2022-09-15T08:07:32.100Z,60.50
2022-09-15T08:08:34.067Z,60.69
2022-09-15T08:09:38.630Z,60.54
2022-09-15T08:10:41.345Z,60.49
2022-09-15T08:11:44.060Z,60.61
2022-09-15T08:12:45.835Z,60.49
2022-09-15T08:13:50.126Z,60.70
2022-09-15T08:14:51.823Z,60.66
2022-09-15T08:15:53.729Z,60.58
2022-09-15T08:16:55.567Z,60.56
2022-09-15T08:17:57.299Z,60.79
2022-09-15T08:18:59.305Z,60.50
2022-09-15T08:20:01.544Z,60.53
2022-09-15T08:21:07.628Z,60.46
2022-09-15T08:22:09.360Z,60.65
2022-09-15T08:23:11.562Z,60.69
2022-09-15T08:24:13.488Z,60.31
2022-09-15T08:25:15.237Z,60.54
2022-09-15T08:26:17.039Z,60.25
2022-09-15T08:27:18.763Z,60.55
2022-09-15T08:28:20.513Z,60.27
2022-09-15T08:29:22.305Z,60.28
2022-09-15T08:30:24.126Z,60.17
2022-09-15T08:31:26.073Z,60.24
2022-09-15T08:32:27.870Z,60.01
2022-09-15T08:33:30.052Z,60.38
2022-09-15T08:34:31.881Z,60.05
2022-09-15T08:35:34.320Z,60.12
2022-09-15T08:36:36.323Z,60.05
2022-09-15T08:37:38.097Z,60.29
2022-09-15T08:38:42.093Z,59.99
2022-09-15T08:39:44.489Z,59.98
2022-09-15T08:40:47.426Z,59.64
2022-09-15T08:41:53.775Z,59.87
2022-09-15T08:43:03.857Z,59.80
2022-09-15T08:44:30.558Z,60.17
2022-09-15T08:46:00.141Z,59.75
2022-09-15T08:47:18.699Z,59.66
2022-09-15T08:48:29.647Z,59.40
2022-09-15T08:49:52.035Z,59.33
2022-09-15T08:50:59.773Z,59.19
2022-09-15T08:52:12.548Z,59.24
2022-09-15T08:53:35.543Z,59.02
2022-09-15T08:54:38.842Z,59.02
2022-09-15T08:55:54.565Z,59.07
2022-09-15T08:56:58.483Z,59.02
2022-09-15T08:58:00.527Z,59.06
2022-09-15T08:59:02.412Z,58.57
2022-09-15T09:00:05.075Z,58.97
2022-09-15T09:02:02.425Z,58.72
2022-09-15T09:03:11.945Z,58.88
2022-09-15T09:04:39.858Z,58.57
2022-09-15T09:06:33.807Z,58.32
2022-09-15T09:08:04.497Z,58.49
2022-09-15T09:09:41.095Z,58.25
2022-09-15T09:11:31.621Z,57.90
2022-09-15T09:13:00.453Z,57.97
2022-09-15T09:15:05.142Z,57.68
2022-09-15T09:16:52.614Z,57.45
2022-09-15T09:18:28.259Z,57.35
2022-09-15T09:20:10.944Z,57.31
2022-09-15T09:21:23.925Z,57.17
2022-09-15T09:22:34.384Z,57.00
2022-09-15T09:24:13.942Z,56.94
2022-09-15T09:25:27.524Z,57.01
2022-09-15T09:26:35.861Z,56.77
2022-09-15T09:27:38.843Z,56.92
2022-09-15T09:28:54.790Z,56.77
2022-09-15T09:30:23.769Z,56.60
2022-09-15T09:31:27.582Z,56.49
2022-09-15T09:33:04.909Z,56.42
2022-09-15T09:34:45.158Z,56.33
2022-09-15T09:35:53.842Z,56.49
2022-09-15T09:37:01.415Z,56.75
2022-09-15T09:38:04.075Z,56.83
2022-09-15T09:39:06.173Z,56.76
2022-09-15T09:40:14.160Z,56.79
2022-09-15T09:41:35.412Z,56.72
2022-09-15T09:42:37.844Z,56.38
2022-09-15T09:43:43.036Z,56.47
2022-09-15T09:44:46.694Z,56.51
2022-09-15T09:45:48.554Z,56.50
2022-09-15T09:46:52.513Z,56.47
2022-09-15T09:48:02.689Z,56.48
2022-09-15T09:49:22.930Z,56.46
2022-09-15T09:50:36.366Z,56.64
2022-09-15T09:51:55.748Z,56.80
2022-09-15T09:52:58.003Z,56.81
2022-09-15T09:54:16.364Z,56.97
2022-09-15T09:55:26.754Z,57.12
2022-09-15T09:56:29.355Z,56.96
2022-09-15T09:57:39.962Z,57.03
2022-09-15T09:58:43.752Z,56.99
2022-09-15T09:59:47.471Z,57.19
2022-09-15T10:00:50.916Z,57.29
2022-09-15T10:02:26.945Z,57.23
2022-09-15T10:03:32.876Z,57.30
2022-09-15T10:04:34.865Z,57.32
2022-09-15T10:05:36.726Z,57.23
2022-09-15T10:06:40.377Z,57.02
2022-09-15T10:07:46.377Z,57.07
2022-09-15T10:09:14.157Z,56.80
2022-09-15T10:10:32.052Z,56.85
2022-09-15T10:11:52.681Z,56.94
2022-09-15T10:12:59.044Z,56.80
2022-09-15T10:14:01.735Z,56.70
2022-09-15T10:15:08.253Z,56.84
2022-09-15T10:16:10.483Z,56.74
2022-09-15T10:17:19.369Z,56.53
2022-09-15T10:18:39.628Z,56.48
2022-09-15T10:19:45.530Z,56.69
2022-09-15T10:20:51.286Z,56.69
2022-09-15T10:21:53.664Z,56.93
2022-09-15T10:23:16.766Z,56.51
2022-09-15T10:24:38.604Z,56.46
2022-09-15T10:25:58.025Z,56.37
2022-09-15T10:27:28.010Z,56.53
2022-09-15T10:28:29.799Z,56.72
2022-09-15T10:29:39.613Z,56.63
2022-09-15T10:31:08.125Z,56.46
2022-09-15T10:32:31.560Z,56.49
2022-09-15T10:33:42.531Z,56.18
2022-09-15T10:34:44.375Z,56.08
2022-09-15T10:35:46.772Z,56.02
2022-09-15T10:36:48.759Z,55.90
2022-09-15T10:38:10.824Z,55.94
2022-09-15T10:39:48.106Z,55.62
2022-09-15T10:41:46.609Z,55.46
2022-09-15T10:42:58.073Z,55.58
2022-09-15T10:44:49.626Z,55.52
2022-09-15T10:46:23.854Z,55.65
2022-09-15T10:47:52.486Z,55.75
2022-09-15T10:49:16.601Z,55.76
2022-09-15T10:50:54.832Z,55.79
2022-09-15T10:52:45.717Z,55.65
2022-09-15T10:54:34.122Z,55.67
2022-09-15T10:55:58.764Z,55.95
2022-09-15T10:59:22.160Z,55.63
2022-09-15T11:00:33.615Z,56.07
2022-09-15T11:02:02.811Z,55.89
2022-09-15T11:04:00.559Z,55.60
2022-09-15T11:05:24.762Z,55.74
2022-09-15T11:07:01.837Z,56.13
2022-09-15T11:08:49.804Z,56.01
2022-09-15T11:10:39.476Z,55.92
2022-09-15T11:12:19.946Z,56.08
2022-09-15T11:13:36.065Z,56.02
2022-09-15T11:14:55.520Z,56.05
2022-09-15T11:16:25.002Z,56.03
2022-09-15T11:18:04.269Z,55.99
2022-09-15T11:19:26.674Z,56.10
2022-09-15T11:20:55.920Z,55.97
2022-09-15T11:22:23.490Z,56.28
2022-09-15T11:24:14.358Z,56.17
2022-09-15T11:25:31.325Z,56.37
2022-09-15T11:26:42.176Z,56.38
2022-09-15T11:28:33.816Z,56.14
2022-09-15T11:29:46.767Z,56.37
2022-09-15T11:31:21.830Z,56.53
2022-09-15T11:32:36.749Z,56.55
2022-09-15T11:33:50.345Z,56.76
2022-09-15T11:34:56.815Z,56.55
2022-09-15T11:36:12.792Z,56.49
2022-09-15T11:37:21.414Z,56.54
2022-09-15T11:38:31.964Z,56.56
2022-09-15T11:39:41.359Z,56.44
2022-09-15T11:41:19.094Z,56.25
2022-09-15T11:42:41.749Z,56.34
2022-09-15T11:44:16.658Z,56.53
2022-09-15T11:45:29.179Z,56.48
2022-09-15T11:47:15.407Z,56.33
2022-09-15T11:48:42.960Z,56.31
2022-09-15T11:50:02.708Z,56.51
2022-09-15T11:51:08.121Z,56.53
2022-09-15T11:52:29.351Z,56.82
2022-09-15T11:53:40.916Z,56.61
2022-09-15T11:55:09.032Z,56.78
2022-09-15T11:56:29.188Z,56.54
2022-09-15T11:57:45.722Z,56.54
2022-09-15T11:59:11.523Z,56.56
2022-09-15T12:00:15.395Z,56.36
2022-09-15T12:01:24.388Z,56.39
2022-09-15T12:02:54.264Z,56.12
2022-09-15T12:04:02.681Z,56.50
2022-09-15T12:05:19.642Z,56.43
2022-09-15T12:06:29.773Z,56.49
2022-09-15T12:07:39.796Z,56.34
2022-09-15T12:08:53.374Z,56.51
2022-09-15T12:10:03.757Z,56.33
2022-09-15T12:11:15.632Z,56.57
2022-09-15T12:12:22.271Z,56.70
2022-09-15T12:13:26.653Z,56.70
2022-09-15T12:14:41.314Z,56.56
2022-09-15T12:15:45.258Z,56.51
2022-09-15T12:16:47.735Z,56.71
2022-09-15T12:18:37.141Z,56.35
2022-09-15T12:19:50.706Z,56.64
2022-09-15T12:21:19.567Z,56.54
2022-09-15T12:22:36.524Z,56.77
2022-09-15T12:23:50.075Z,56.81
2022-09-15T12:25:41.253Z,56.57
2022-09-15T12:26:46.504Z,56.69
2022-09-15T12:28:36.984Z,56.67
2022-09-15T12:29:47.631Z,56.76
2022-09-15T12:31:25.657Z,56.74
2022-09-15T12:32:32.376Z,56.67
2022-09-15T12:33:42.962Z,56.55
2022-09-15T12:35:10.107Z,56.45
2022-09-15T12:36:37.831Z,56.56
2022-09-15T12:37:48.903Z,56.59
2022-09-15T12:38:51.089Z,56.36
2022-09-15T12:39:54.029Z,56.47
2022-09-15T12:40:59.505Z,56.60
2022-09-15T12:42:01.154Z,56.59
2022-09-15T12:43:12.681Z,56.33
2022-09-15T12:44:48.315Z,56.28
2022-09-15T12:46:01.911Z,55.87
2022-09-15T12:47:17.737Z,55.90
2022-09-15T12:48:25.183Z,55.84
2022-09-15T12:49:41.878Z,55.80
2022-09-15T12:50:54.407Z,55.81
2022-09-15T12:51:58.915Z,55.53
2022-09-15T12:53:14.584Z,55.58
2022-09-15T12:54:28.247Z,55.40
2022-09-15T12:55:37.620Z,55.46
2022-09-15T12:56:39.426Z,55.37
2022-09-15T12:57:41.209Z,55.64
2022-09-15T12:58:49.676Z,55.50
2022-09-15T13:00:20.022Z,55.33
2022-09-15T13:01:25.019Z,55.72
2022-09-15T13:02:48.333Z,55.51
2022-09-15T13:03:50.040Z,55.68
2022-09-15T13:04:54.784Z,55.85
2022-09-15T13:06:18.123Z,55.45
2022-09-15T13:07:19.796Z,55.37
2022-09-15T13:08:24.441Z,55.49
2022-09-15T13:09:28.525Z,55.64
2022-09-15T13:10:36.057Z,55.52
2022-09-15T13:11:50.062Z,55.33
2022-09-15T13:13:09.439Z,55.31
2022-09-15T13:14:32.400Z,55.19
2022-09-15T13:15:40.909Z,55.10
2022-09-15T13:17:06.546Z,55.15
2022-09-15T13:18:12.195Z,55.07
2022-09-15T13:19:41.481Z,55.02
2022-09-15T13:21:05.247Z,54.89
2022-09-15T13:22:30.148Z,54.98
2022-09-15T13:23:40.875Z,54.95
2022-09-15T13:25:03.687Z,54.81
2022-09-15T13:26:12.109Z,55.02
2022-09-15T13:27:22.965Z,54.86
2022-09-15T13:28:27.075Z,54.79
2022-09-15T13:29:32.807Z,54.53
2022-09-15T13:30:52.568Z,54.58
2022-09-15T13:32:26.949Z,54.65
2022-09-15T13:35:40.196Z,54.14
2022-09-15T13:39:05.639Z,54.19
2022-09-15T13:40:39.005Z,54.05
2022-09-15T13:42:14.252Z,54.17
2022-09-15T13:43:38.698Z,54.56
2022-09-15T13:45:25.525Z,54.23
2022-09-15T13:46:43.432Z,54.36
2022-09-15T13:48:54.686Z,54.18
2022-09-15T13:50:18.702Z,54.13
2022-09-15T13:51:29.876Z,54.05
2022-09-15T13:53:05.631Z,53.95
2022-09-15T13:54:18.974Z,54.09
2022-09-15T13:55:28.409Z,54.20
2022-09-15T13:56:40.555Z,53.86
2022-09-15T13:59:25.444Z,53.94
2022-09-15T14:00:32.023Z,54.06
2022-09-15T14:01:38.979Z,54.13
2022-09-15T14:02:49.817Z,53.75
2022-09-15T14:04:03.094Z,53.73
2022-09-15T14:05:09.024Z,53.89
2022-09-15T14:06:17.721Z,53.43
2022-09-15T14:07:24.985Z,53.48
2022-09-15T14:08:33.182Z,53.24
2022-09-15T14:09:44.596Z,53.25
2022-09-15T14:10:58.154Z,53.22
2022-09-15T14:12:07.707Z,52.94
2022-09-15T14:13:16.486Z,52.85
2022-09-15T14:14:27.423Z,52.33
2022-09-15T14:15:30.014Z,52.15
2022-09-15T14:16:38.900Z,52.12
2022-09-15T14:17:45.756Z,52.06
2022-09-15T14:18:47.469Z,52.21
2022-09-15T14:19:55.657Z,52.08
2022-09-15T14:21:03.899Z,51.56
2022-09-15T14:22:17.744Z,51.53
2022-09-15T14:23:19.996Z,51.26
2022-09-15T14:24:27.169Z,51.16
2022-09-15T14:25:30.581Z,50.92
2022-09-15T14:26:35.799Z,50.56
2022-09-15T14:27:49.614Z,50.82
2022-09-15T14:28:57.110Z,50.37
2022-09-15T14:30:04.609Z,50.10
2022-09-15T14:31:06.469Z,50.18
2022-09-15T14:32:16.073Z,50.11
2022-09-15T14:33:18.116Z,49.98
2022-09-15T14:34:32.124Z,50.08
2022-09-15T14:35:37.945Z,49.77
2022-09-15T14:36:40.450Z,49.86
2022-09-15T14:37:48.825Z,49.68
2022-09-15T14:39:12.101Z,49.90
2022-09-15T14:40:24.343Z,49.58
2022-09-15T14:41:26.288Z,49.53
2022-09-15T14:42:40.070Z,49.66
2022-09-15T14:43:42.228Z,49.51
2022-09-15T14:46:16.939Z,49.21
2022-09-15T14:47:28.335Z,49.40
2022-09-15T14:48:30.673Z,49.29
2022-09-15T14:49:32.426Z,49.43
2022-09-15T14:50:35.386Z,49.60
2022-09-15T14:51:38.394Z,49.03
2022-09-15T14:53:03.924Z,48.95
2022-09-15T14:54:15.254Z,49.11
2022-09-15T14:55:25.379Z,48.74
2022-09-15T14:56:34.890Z,48.53
2022-09-15T14:57:41.950Z,48.85
2022-09-15T14:58:52.472Z,48.84
2022-09-15T15:00:03.109Z,48.79
2022-09-15T15:01:17.039Z,48.88
2022-09-15T15:02:46.560Z,48.92
2022-09-15T15:04:12.239Z,49.02
2022-09-15T15:05:25.986Z,48.84